No particular awareness of the weather is required.    There are no Weather-warnings


Meteo18 Weather Cam more information Meteo18 Weather Cam


Thunder radar more information blitzortung!


Rain radar more information rain snow radar


Visit our other weather sites:

Template documentation
and downloads

And another site



Weather Underground History page Text

Daily Summary for April 10, 2017 Units:  English    Metric   Both
« Previous Day
Next Day »
Daily Weekly Monthly Yearly Custom
  High: Low: Average:
Temperature: 63 °F 46.6 °F 55.6 °F
Dew Point: 53.1 °F 43.9 °F 47.7 °F
Humidity: 91 % 57 % 75 %
Wind Speed: 13 mph 0 mph 2.6 mph
Wind Gust: 17 mph - -
Wind:- - SSW
Pressure: 30.3 in 30.2 in -
Precipitation: 0 in    
Historical Graphs
 
 
Tabular Data for April 10, 2017
Time Temperature Dew Point Pressure Wind Wind Speed Wind Gust Humidity Rainfall Rate (Hourly)
00:02 57.4 °F 46.6 °F 30.2 in Calm     67 % 0 in
00:07 57 °F 46.6 °F 30.2 in Calm     68 % 0 in
00:12 57 °F 46.9 °F 30.2 in Calm     69 % 0 in
00:17 57 °F 46.9 °F 30.2 in Calm     69 % 0 in
00:22 57.2 °F 46.8 °F 30.2 in Calm     68 % 0 in
00:32 57.9 °F 46.6 °F 30.2 in NNE 2 mph 3 mph 66 % 0 in
00:37 58.6 °F 46.9 °F 30.2 in Calm   3 mph 65 % 0 in
00:42 58.3 °F 46.6 °F 30.2 in Calm   3 mph 65 % 0 in
00:47 57.9 °F 46.6 °F 30.2 in Calm   2 mph 66 % 0 in
00:52 57.6 °F 46.8 °F 30.2 in SSW 1 mph 1 mph 67 % 0 in
00:57 56.7 °F 46.6 °F 30.2 in Calm   2 mph 69 % 0 in
01:02 56.5 °F 46.4 °F 30.2 in Calm   2 mph 69 % 0 in
01:07 56.5 °F 46.4 °F 30.2 in Calm   2 mph 69 % 0 in
01:12 55.9 °F 46.2 °F 30.2 in Calm   1 mph 70 % 0 in
01:17 55.6 °F 46.4 °F 30.2 in Calm     71 % 0 in
01:22 55.2 °F 46 °F 30.2 in Calm     71 % 0 in
01:27 55 °F 46.2 °F 30.2 in Calm     72 % 0 in
01:37 53.8 °F 45.7 °F 30.2 in Calm     74 % 0 in
01:42 53.2 °F 45.5 °F 30.2 in Calm     75 % 0 in
01:47 53.1 °F 45.7 °F 30.2 in Calm   1 mph 76 % 0 in
01:52 53.1 °F 45.7 °F 30.2 in SSW 1 mph 1 mph 76 % 0 in
01:57 53.2 °F 45.9 °F 30.2 in Calm   1 mph 76 % 0 in
02:02 52.7 °F 45 °F 30.2 in Calm   1 mph 75 % 0 in
02:07 52 °F 45 °F 30.2 in Calm   1 mph 77 % 0 in
02:12 52 °F 45.3 °F 30.2 in Calm     78 % 0 in
02:17 51.6 °F 45 °F 30.2 in Calm     78 % 0 in
02:32 51.3 °F 45.3 °F 30.2 in Calm     80 % 0 in
02:37 51.1 °F 45.1 °F 30.2 in Calm     80 % 0 in
02:42 50.7 °F 45.1 °F 30.2 in Calm     81 % 0 in
02:47 50.5 °F 45.3 °F 30.2 in Calm     82 % 0 in
02:52 50.4 °F 45.1 °F 30.2 in Calm     82 % 0 in
03:02 50 °F 45 °F 30.2 in Calm     83 % 0 in
03:07 49.8 °F 44.8 °F 30.2 in Calm     83 % 0 in
03:12 50.2 °F 45.5 °F 30.2 in Calm   1 mph 84 % 0 in
03:17 50.2 °F 45.5 °F 30.2 in Calm   1 mph 84 % 0 in
03:22 50.4 °F 45.7 °F 30.2 in Calm   1 mph 84 % 0 in
03:27 50.4 °F 45.3 °F 30.2 in Calm     83 % 0 in
03:32 50.2 °F 45.1 °F 30.2 in Calm     83 % 0 in
03:37 49.8 °F 45.1 °F 30.2 in Calm     84 % 0 in
03:42 49.8 °F 45.5 °F 30.2 in Calm     85 % 0 in
03:47 49.8 °F 45.5 °F 30.2 in Calm   1 mph 85 % 0 in
03:52 49.8 °F 45.1 °F 30.2 in Calm   1 mph 84 % 0 in
03:57 49.8 °F 45.5 °F 30.2 in Calm   1 mph 85 % 0 in
04:02 49.8 °F 45.1 °F 30.2 in Calm     84 % 0 in
04:07 49.6 °F 45 °F 30.2 in Calm     84 % 0 in
04:12 49.3 °F 44.6 °F 30.2 in Calm     84 % 0 in
04:17 48.9 °F 44.6 °F 30.2 in Calm     85 % 0 in
04:22 48.7 °F 44.8 °F 30.2 in Calm     86 % 0 in
04:27 49.3 °F 45.5 °F 30.2 in Calm     87 % 0 in
04:32 49.6 °F 45.3 °F 30.2 in Calm     85 % 0 in
04:37 49.5 °F 45.1 °F 30.2 in Calm     85 % 0 in
04:42 49.3 °F 45 °F 30.2 in Calm   1 mph 85 % 0 in
04:52 49.1 °F 45.1 °F 30.2 in Calm   1 mph 86 % 0 in
04:57 48.7 °F 44.8 °F 30.2 in Calm   1 mph 86 % 0 in
05:02 48.7 °F 45 °F 30.2 in Calm   1 mph 87 % 0 in
05:07 48.7 °F 45 °F 30.2 in Calm     87 % 0 in
05:12 48.7 °F 45 °F 30.2 in Calm     87 % 0 in
05:17 48.6 °F 44.8 °F 30.2 in Calm     87 % 0 in
05:32 47.8 °F 44.8 °F 30.2 in Calm   1 mph 89 % 0 in
05:42 48.6 °F 45.5 °F 30.2 in Calm     89 % 0 in
05:47 48.4 °F 45 °F 30.2 in Calm     88 % 0 in
05:52 48.4 °F 45 °F 30.2 in Calm     88 % 0 in
05:57 48.2 °F 44.8 °F 30.2 in Calm     88 % 0 in
06:02 48 °F 45 °F 30.2 in Calm     89 % 0 in
06:07 47.8 °F 44.8 °F 30.2 in Calm     89 % 0 in
06:12 47.8 °F 44.8 °F 30.2 in Calm     89 % 0 in
06:17 47.7 °F 44.6 °F 30.2 in Calm   1 mph 89 % 0 in
06:22 47.8 °F 45 °F 30.2 in SE 2 mph 2 mph 90 % 0 in
06:27 47.8 °F 45 °F 30.2 in Calm   1 mph 90 % 0 in
06:32 47.7 °F 44.6 °F 30.2 in Calm   2 mph 89 % 0 in
06:42 47.1 °F 44.1 °F 30.2 in Calm   1 mph 89 % 0 in
06:47 47.1 °F 44.4 °F 30.2 in Calm   1 mph 90 % 0 in
06:52 46.8 °F 44.1 °F 30.2 in Calm   1 mph 90 % 0 in
06:57 46.6 °F 43.9 °F 30.2 in Calm   1 mph 90 % 0 in
07:02 46.6 °F 43.9 °F 30.2 in Calm   1 mph 90 % 0 in
07:12 46.8 °F 44.2 °F 30.2 in Calm     91 % 0 in
07:22 46.8 °F 44.2 °F 30.2 in SSW 1 mph 1 mph 91 % 0 in
07:32 47.1 °F 44.6 °F 30.2 in SW 1 mph 2 mph 91 % 0 in
07:37 47.7 °F 45.1 °F 30.2 in Calm   2 mph 91 % 0 in
07:42 48 °F 45.1 °F 30.2 in Calm   2 mph 90 % 0 in
07:47 48.4 °F 45.3 °F 30.2 in ENE 1 mph 2 mph 89 % 0 in
07:52 47.7 °F 44.2 °F 30.2 in NE 1 mph 2 mph 88 % 0 in
07:57 47.7 °F 44.6 °F 30.2 in NE 2 mph 4 mph 89 % 0 in
08:02 47.5 °F 44.4 °F 30.2 in ENE 1 mph 4 mph 89 % 0 in
08:12 48 °F 45 °F 30.2 in NNE 3 mph 3 mph 89 % 0 in
08:17 48.4 °F 45.3 °F 30.2 in NNE 2 mph 5 mph 89 % 0 in
08:22 48.9 °F 45.9 °F 30.2 in Calm   5 mph 89 % 0 in
08:27 49.6 °F 46.2 °F 30.2 in Calm   5 mph 88 % 0 in
08:32 50.2 °F 46.4 °F 30.2 in Calm   5 mph 87 % 0 in
08:37 50.7 °F 46.9 °F 30.2 in North 1 mph 1 mph 87 % 0 in
08:42 51.3 °F 47.5 °F 30.2 in North 1 mph 1 mph 87 % 0 in
08:52 52.3 °F 48.2 °F 30.2 in East 1 mph 2 mph 86 % 0 in
08:57 52.5 °F 48.2 °F 30.2 in Calm   2 mph 85 % 0 in
09:02 53.8 °F 49.1 °F 30.2 in Calm   2 mph 84 % 0 in
09:07 54.3 °F 48.9 °F 30.2 in Calm   2 mph 82 % 0 in
09:12 54.7 °F 49.6 °F 30.2 in Calm   2 mph 83 % 0 in
09:17 55.2 °F 50.5 °F 30.2 in Calm   2 mph 84 % 0 in
09:22 55.9 °F 50.5 °F 30.2 in Calm   2 mph 82 % 0 in
09:27 57 °F 50.9 °F 30.2 in Calm   1 mph 80 % 0 in
09:32 56.8 °F 50 °F 30.2 in Calm   1 mph 78 % 0 in
09:37 57 °F 50.2 °F 30.2 in Calm   2 mph 78 % 0 in
09:42 57.6 °F 50.7 °F 30.2 in Calm   2 mph 78 % 0 in
09:47 57.9 °F 50.4 °F 30.2 in ENE 2 mph 2 mph 76 % 0 in
09:52 57.7 °F 50.2 °F 30.2 in Calm   2 mph 76 % 0 in
09:57 58.1 °F 50.5 °F 30.2 in SE 1 mph 3 mph 76 % 0 in
10:07 59.7 °F 51.4 °F 30.2 in Calm   3 mph 74 % 0 in
10:12 60.3 °F 51.3 °F 30.2 in Calm   1 mph 72 % 0 in
10:17 60.1 °F 51.1 °F 30.2 in Calm   2 mph 72 % 0 in
10:22 60.1 °F 50.2 °F 30.2 in NNE 2 mph 2 mph 70 % 0 in
10:32 61 °F 51.4 °F 30.2 in NNE 1 mph 4 mph 71 % 0 in
10:37 61 °F 50.7 °F 30.2 in North 2 mph 4 mph 69 % 0 in
10:42 60.6 °F 50.7 °F 30.2 in NNE 4 mph 6 mph 70 % 0 in
10:47 60.8 °F 51.8 °F 30.2 in NW 2 mph 6 mph 72 % 0 in
10:52 61 °F 51.4 °F 30.2 in NNW 2 mph 6 mph 71 % 0 in
10:57 61 °F 51.4 °F 30.2 in NNE 4 mph 6 mph 71 % 0 in
11:02 60.8 °F 51.3 °F 30.2 in Calm   6 mph 71 % 0 in
11:07 61.2 °F 52 °F 30.2 in NW 4 mph 6 mph 72 % 0 in
11:12 61.3 °F 52.7 °F 30.2 in North 4 mph 8 mph 73 % 0 in
11:17 61.3 °F 51.8 °F 30.2 in NNW 4 mph 8 mph 71 % 0 in
11:22 61.3 °F 52.2 °F 30.3 in WNW 3 mph 7 mph 72 % 0 in
11:27 61.3 °F 51.8 °F 30.3 in NNE 4 mph 7 mph 71 % 0 in
11:32 61.5 °F 52.3 °F 30.3 in WNW 4 mph 7 mph 72 % 0 in
11:37 61.3 °F 53.1 °F 30.3 in NW 3 mph 9 mph 74 % 0 in
11:42 61.5 °F 52 °F 30.3 in North 8 mph 9 mph 71 % 0 in
11:47 61.3 °F 52.2 °F 30.3 in North 7 mph 11 mph 72 % 0 in
11:52 61.5 °F 52 °F 30.3 in NNW 6 mph 11 mph 71 % 0 in
11:57 61.3 °F 51.4 °F 30.3 in NNW 4 mph 11 mph 70 % 0 in
12:02 61.5 °F 50.9 °F 30.3 in NNE 6 mph 10 mph 68 % 0 in
12:07 61.5 °F 51.6 °F 30.3 in NNE 4 mph 11 mph 70 % 0 in
12:12 61.7 °F 51.8 °F 30.3 in NW 4 mph 11 mph 70 % 0 in
12:17 61.5 °F 52.3 °F 30.3 in NNW 8 mph 11 mph 72 % 0 in
12:22 61.2 °F 50.9 °F 30.3 in NW 4 mph 11 mph 69 % 0 in
12:27 61.2 °F 52.5 °F 30.3 in NNW 4 mph 11 mph 73 % 0 in
12:32 61.3 °F 52.7 °F 30.3 in North 4 mph 11 mph 73 % 0 in
12:37 61.2 °F 52.5 °F 30.3 in NE 5 mph 9 mph 73 % 0 in
12:42 60.3 °F 52.3 °F 30.3 in NNW 6 mph 12 mph 75 % 0 in
12:47 59.9 °F 52 °F 30.3 in NNE 6 mph 12 mph 75 % 0 in
12:52 59.4 °F 51.4 °F 30.3 in NNW 5 mph 12 mph 75 % 0 in
12:57 59.4 °F 51.4 °F 30.3 in NNW 6 mph 11 mph 75 % 0 in
13:02 58.8 °F 51.3 °F 30.3 in WNW 6 mph 10 mph 76 % 0 in
13:07 58.5 °F 51.6 °F 30.3 in NNW 4 mph 12 mph 78 % 0 in
13:12 57.9 °F 50.7 °F 30.3 in North 13 mph 13 mph 77 % 0 in
13:17 57.9 °F 51.1 °F 30.3 in NW 4 mph 14 mph 78 % 0 in
13:22 57.6 °F 50.7 °F 30.3 in NW 5 mph 14 mph 78 % 0 in
13:27 57.4 °F 50.5 °F 30.3 in NNW 4 mph 14 mph 78 % 0 in
13:32 57.9 °F 51.4 °F 30.3 in NW 6 mph 12 mph 79 % 0 in
13:37 57.9 °F 51.1 °F 30.3 in NNE 4 mph 11 mph 78 % 0 in
13:42 57.6 °F 50.4 °F 30.3 in North 4 mph 12 mph 77 % 0 in
13:47 57.6 °F 50.4 °F 30.3 in NNW 6 mph 12 mph 77 % 0 in
13:52 57.9 °F 51.1 °F 30.3 in NE 6 mph 11 mph 78 % 0 in
13:57 58.1 °F 50.9 °F 30.3 in NNE 4 mph 11 mph 77 % 0 in
14:02 58.1 °F 50.5 °F 30.3 in NNW 4 mph 12 mph 76 % 0 in
14:07 58.8 °F 51.6 °F 30.3 in WNW 3 mph 12 mph 77 % 0 in
14:12 58.8 °F 51.3 °F 30.3 in NE 5 mph 10 mph 76 % 0 in
14:17 59.2 °F 51.6 °F 30.3 in WNW 2 mph 10 mph 76 % 0 in
14:22 59.4 °F 51.1 °F 30.3 in NNW 3 mph 10 mph 74 % 0 in
14:27 59.7 °F 51.4 °F 30.3 in NNW 4 mph 9 mph 74 % 0 in
14:32 60.1 °F 51.8 °F 30.3 in NW 5 mph 9 mph 74 % 0 in
14:37 60.1 °F 51.1 °F 30.3 in NNW 7 mph 12 mph 72 % 0 in
14:42 60.3 °F 52 °F 30.3 in NW 5 mph 12 mph 74 % 0 in
14:52 60.3 °F 52 °F 30.3 in North 5 mph 10 mph 74 % 0 in
14:57 60.6 °F 51.6 °F 30.3 in NE 2 mph 10 mph 72 % 0 in
15:02 61 °F 52 °F 30.3 in WNW 7 mph 11 mph 72 % 0 in
15:07 61 °F 51.4 °F 30.3 in NNE 4 mph 11 mph 71 % 0 in
15:12 61.2 °F 52.5 °F 30.3 in NNW 8 mph 11 mph 73 % 0 in
15:17 61.3 °F 51.8 °F 30.3 in NNW 4 mph 12 mph 71 % 0 in
15:22 61.9 °F 51.3 °F 30.3 in NW 6 mph 12 mph 68 % 0 in
15:27 61.7 °F 51.1 °F 30.3 in NNW 5 mph 12 mph 68 % 0 in
15:32 62.1 °F 51.8 °F 30.3 in West 5 mph 11 mph 69 % 0 in
15:37 62.2 °F 50 °F 30.3 in NW 11 mph 11 mph 64 % 0 in
15:42 62.2 °F 49.5 °F 30.3 in North 4 mph 11 mph 63 % 0 in
15:47 62.2 °F 49.5 °F 30.3 in NNW 7 mph 12 mph 63 % 0 in
15:52 62.2 °F 49.5 °F 30.2 in North 3 mph 13 mph 63 % 0 in
15:57 62.4 °F 49.3 °F 30.2 in NNE 4 mph 13 mph 62 % 0 in
16:02 62.4 °F 49.3 °F 30.2 in NNW 3 mph 13 mph 62 % 0 in
16:07 62.4 °F 49.3 °F 30.2 in North 6 mph 17 mph 62 % 0 in
16:12 62.4 °F 48.4 °F 30.2 in WNW 10 mph 17 mph 60 % 0 in
16:17 62.4 °F 48.7 °F 30.2 in NNE 7 mph 13 mph 61 % 0 in
16:22 62.6 °F 47.7 °F 30.2 in North 5 mph 13 mph 58 % 0 in
16:32 62.2 °F 47.7 °F 30.2 in NNW 6 mph 13 mph 59 % 0 in
16:37 62.2 °F 47.7 °F 30.2 in NNW 9 mph 13 mph 59 % 0 in
16:42 62.4 °F 48.4 °F 30.2 in NW 7 mph 13 mph 60 % 0 in
16:47 62.4 °F 46.9 °F 30.2 in NNW 7 mph 13 mph 57 % 0 in
16:52 62.4 °F 46.9 °F 30.2 in North 4 mph 13 mph 57 % 0 in
16:57 62.4 °F 46.9 °F 30.2 in NNW 4 mph 13 mph 57 % 0 in
17:02 62.8 °F 47.8 °F 30.2 in NNE 5 mph 13 mph 58 % 0 in
17:12 62.8 °F 48.2 °F 30.2 in NW 8 mph 13 mph 59 % 0 in
17:17 62.4 °F 46.9 °F 30.2 in NW 5 mph 17 mph 57 % 0 in
17:27 62.8 °F 49.1 °F 30.2 in NW 5 mph 15 mph 61 % 0 in
17:32 63 °F 49.3 °F 30.2 in NNE 4 mph 14 mph 61 % 0 in
17:37 62.8 °F 48.7 °F 30.2 in NNW 8 mph 14 mph 60 % 0 in
17:42 62.4 °F 48.7 °F 30.2 in NNE 6 mph 12 mph 61 % 0 in
17:52 62.2 °F 48.6 °F 30.2 in North 9 mph 12 mph 61 % 0 in
17:57 62.1 °F 48.9 °F 30.2 in NNW 6 mph 11 mph 62 % 0 in
18:02 61.5 °F 48 °F 30.2 in NNW 12 mph 13 mph 61 % 0 in
18:12 61.2 °F 47.7 °F 30.2 in NNW 5 mph 17 mph 61 % 0 in
18:17 61.2 °F 47.7 °F 30.2 in NNE 11 mph 17 mph 61 % 0 in
18:22 61.2 °F 47.7 °F 30.2 in North 4 mph 17 mph 61 % 0 in
18:27 61.2 °F 47.7 °F 30.2 in NW 6 mph 15 mph 61 % 0 in
18:32 61.2 °F 48 °F 30.2 in NW 10 mph 15 mph 62 % 0 in
18:37 61.2 °F 47.7 °F 30.2 in WNW 6 mph 13 mph 61 % 0 in
18:42 60.8 °F 47.7 °F 30.2 in NNE 4 mph 13 mph 62 % 0 in
18:47 61 °F 47.8 °F 30.2 in NNW 6 mph 14 mph 62 % 0 in
18:52 60.6 °F 47.1 °F 30.2 in North 10 mph 14 mph 61 % 0 in
18:57 60.1 °F 46.6 °F 30.2 in NW 2 mph 14 mph 61 % 0 in
19:02 59.9 °F 47.3 °F 30.2 in North 9 mph 15 mph 63 % 0 in
19:12 59.7 °F 46.8 °F 30.2 in North 7 mph 11 mph 62 % 0 in
19:17 59.7 °F 47.1 °F 30.2 in WNW 5 mph 14 mph 63 % 0 in
19:22 59.4 °F 46.8 °F 30.2 in NNW 8 mph 14 mph 63 % 0 in
19:27 59.2 °F 46.9 °F 30.2 in NW 4 mph 12 mph 64 % 0 in
19:32 58.8 °F 46.6 °F 30.2 in NW 9 mph 13 mph 64 % 0 in
19:37 58.6 °F 46.6 °F 30.2 in North 7 mph 13 mph 64 % 0 in
19:47 58.3 °F 46.6 °F 30.2 in NNW 4 mph 13 mph 65 % 0 in
19:52 58.3 °F 46.9 °F 30.2 in NE 10 mph 12 mph 66 % 0 in
19:57 58.3 °F 46.9 °F 30.2 in North 4 mph 12 mph 66 % 0 in
20:02 58.3 °F 46.6 °F 30.2 in NNE 8 mph 12 mph 65 % 0 in
20:12 57.9 °F 46.6 °F 30.2 in NNW 4 mph 11 mph 66 % 0 in
20:17 57.6 °F 46.2 °F 30.3 in NNE 7 mph 9 mph 66 % 0 in
20:22 57.4 °F 46.6 °F 30.3 in NNW 3 mph 10 mph 67 % 0 in
20:32 56.8 °F 46.4 °F 30.3 in North 5 mph 10 mph 68 % 0 in
20:37 56.5 °F 46 °F 30.3 in North 6 mph 10 mph 68 % 0 in
20:42 56.3 °F 46.2 °F 30.3 in North 6 mph 9 mph 69 % 0 in
20:47 55.9 °F 45.9 °F 30.3 in North 3 mph 9 mph 69 % 0 in
20:52 55.9 °F 46.2 °F 30.3 in NNW 3 mph 9 mph 70 % 0 in
20:57 55.8 °F 46.6 °F 30.3 in NNE 1 mph 9 mph 71 % 0 in
21:02 55.4 °F 46.6 °F 30.3 in NE 3 mph 7 mph 72 % 0 in
21:12 54.7 °F 46.2 °F 30.3 in NE 2 mph 5 mph 73 % 0 in
21:17 54.3 °F 46.2 °F 30.3 in Calm   4 mph 74 % 0 in
21:22 54.1 °F 46.4 °F 30.3 in North 1 mph 4 mph 75 % 0 in
21:27 54 °F 46.2 °F 30.3 in NNW 2 mph 4 mph 75 % 0 in
21:37 53.8 °F 46.4 °F 30.3 in North 1 mph 5 mph 76 % 0 in
21:47 53.2 °F 45.9 °F 30.3 in NNW 1 mph 5 mph 76 % 0 in
21:52 53.1 °F 46 °F 30.3 in North 1 mph 4 mph 77 % 0 in
22:02 52.5 °F 45.9 °F 30.3 in NNW 1 mph 3 mph 78 % 0 in
22:07 52.5 °F 45.9 °F 30.3 in Calm   2 mph 78 % 0 in
22:12 52.3 °F 45.7 °F 30.3 in Calm   2 mph 78 % 0 in
22:17 52 °F 45.7 °F 30.3 in Calm   2 mph 79 % 0 in
22:22 51.6 °F 45.3 °F 30.3 in Calm   2 mph 79 % 0 in
22:27 51.4 °F 45.5 °F 30.3 in Calm   1 mph 80 % 0 in
22:32 51.4 °F 45.5 °F 30.3 in Calm   1 mph 80 % 0 in
22:37 51.4 °F 45.5 °F 30.3 in Calm   1 mph 80 % 0 in
22:42 51.3 °F 45.3 °F 30.3 in Calm   1 mph 80 % 0 in
22:52 50.7 °F 44.8 °F 30.3 in WNW 1 mph 1 mph 80 % 0 in
22:57 50.7 °F 44.8 °F 30.3 in NW 1 mph 2 mph 80 % 0 in
23:02 50.5 °F 44.6 °F 30.3 in Calm   2 mph 80 % 0 in
23:07 50.5 °F 44.6 °F 30.3 in Calm   2 mph 80 % 0 in
23:12 50.4 °F 44.8 °F 30.3 in NW 1 mph 2 mph 81 % 0 in
23:17 50.4 °F 44.8 °F 30.3 in NW 1 mph 2 mph 81 % 0 in
23:22 50.5 °F 45 °F 30.3 in NW 1 mph 2 mph 81 % 0 in
23:27 50.5 °F 45 °F 30.3 in Calm   2 mph 81 % 0 in
23:32 50.5 °F 45 °F 30.3 in Calm   2 mph 81 % 0 in
23:37 50.4 °F 44.8 °F 30.3 in NW 1 mph 2 mph 81 % 0 in
23:42 50.4 °F 44.8 °F 30.3 in Calm   2 mph 81 % 0 in
23:47 50.5 °F 45 °F 30.3 in NW 1 mph 2 mph 81 % 0 in
23:52 50.5 °F 45 °F 30.3 in WNW 2 mph 3 mph 81 % 0 in
23:57 50.4 °F 44.8 °F 30.3 in WNW 1 mph 3 mph 81 % 0 in
Meteo18
Compliments of Weather Underground - 4 mb

Script developed by  Jim McMurry - jmcmurry@mwt.net Adapted for the template by  Wim van der Kuil - Leuven-Template.eu

You find our weather info also at:

European Weather Network

Weather Underground

Equipment we use:

Weather-station
Davis Vue

Weather-program
Meteohub

Weather-server
Raspberry PI 2 B+

Provider
1 and 1

Davis Vue

Meteohub

Raspberry PI 2 B+

1 and 1